sensor_id;sensor_type;location;lat;lon;timestamp;temperature;humidity
67141;DHT22;54058;52.010;5.546;2022-08-20T00:00:29;21.00;82.90
67141;DHT22;54058;52.010;5.546;2022-08-20T00:02:58;21.00;82.80
67141;DHT22;54058;52.010;5.546;2022-08-20T00:05:33;21.00;82.80
67141;DHT22;54058;52.010;5.546;2022-08-20T00:07:59;21.10;82.80
67141;DHT22;54058;52.010;5.546;2022-08-20T00:10:26;21.10;82.70
67141;DHT22;54058;52.010;5.546;2022-08-20T00:12:53;21.10;82.80
67141;DHT22;54058;52.010;5.546;2022-08-20T00:15:22;21.00;82.70
67141;DHT22;54058;52.010;5.546;2022-08-20T00:17:51;21.00;82.80
67141;DHT22;54058;52.010;5.546;2022-08-20T00:20:19;21.00;82.80
67141;DHT22;54058;52.010;5.546;2022-08-20T00:22:45;21.00;82.90
67141;DHT22;54058;52.010;5.546;2022-08-20T00:25:12;21.00;83.00
67141;DHT22;54058;52.010;5.546;2022-08-20T00:27:38;20.90;83.00
67141;DHT22;54058;52.010;5.546;2022-08-20T00:30:06;20.90;83.50
67141;DHT22;54058;52.010;5.546;2022-08-20T00:32:50;20.90;82.90
67141;DHT22;54058;52.010;5.546;2022-08-20T00:35:19;20.90;83.20
67141;DHT22;54058;52.010;5.546;2022-08-20T00:37:45;20.80;83.30
67141;DHT22;54058;52.010;5.546;2022-08-20T00:40:15;20.80;83.40
67141;DHT22;54058;52.010;5.546;2022-08-20T00:42:48;20.80;83.40
67141;DHT22;54058;52.010;5.546;2022-08-20T00:45:17;20.90;83.40
67141;DHT22;54058;52.010;5.546;2022-08-20T00:47:43;20.90;83.40
67141;DHT22;54058;52.010;5.546;2022-08-20T00:50:11;20.90;83.40
67141;DHT22;54058;52.010;5.546;2022-08-20T00:52:39;20.90;83.40
67141;DHT22;54058;52.010;5.546;2022-08-20T00:55:07;20.80;83.40
67141;DHT22;54058;52.010;5.546;2022-08-20T00:57:43;20.80;83.60
67141;DHT22;54058;52.010;5.546;2022-08-20T01:00:17;20.80;83.80
67141;DHT22;54058;52.010;5.546;2022-08-20T01:02:43;20.80;83.60
67141;DHT22;54058;52.010;5.546;2022-08-20T01:05:09;20.80;83.70
67141;DHT22;54058;52.010;5.546;2022-08-20T01:07:36;20.80;83.50
67141;DHT22;54058;52.010;5.546;2022-08-20T01:10:16;20.90;83.50
67141;DHT22;54058;52.010;5.546;2022-08-20T01:12:43;20.90;83.60
67141;DHT22;54058;52.010;5.546;2022-08-20T01:15:13;20.80;83.70
67141;DHT22;54058;52.010;5.546;2022-08-20T01:17:45;20.80;83.80
67141;DHT22;54058;52.010;5.546;2022-08-20T01:20:27;20.80;83.90
67141;DHT22;54058;52.010;5.546;2022-08-20T01:28:17;20.80;83.70
67141;DHT22;54058;52.010;5.546;2022-08-20T01:30:44;20.80;83.70
67141;DHT22;54058;52.010;5.546;2022-08-20T01:33:10;20.80;83.70
67141;DHT22;54058;52.010;5.546;2022-08-20T01:35:37;20.80;83.60
67141;DHT22;54058;52.010;5.546;2022-08-20T01:38:04;20.80;83.60
67141;DHT22;54058;52.010;5.546;2022-08-20T01:43:24;20.70;84.00
67141;DHT22;54058;52.010;5.546;2022-08-20T01:45:51;20.60;84.30
67141;DHT22;54058;52.010;5.546;2022-08-20T01:48:17;20.60;84.50
67141;DHT22;54058;52.010;5.546;2022-08-20T01:50:55;20.70;84.60
67141;DHT22;54058;52.010;5.546;2022-08-20T01:53:33;20.70;84.40
67141;DHT22;54058;52.010;5.546;2022-08-20T01:56:01;20.70;85.00
67141;DHT22;54058;52.010;5.546;2022-08-20T01:58:27;20.70;84.40
67141;DHT22;54058;52.010;5.546;2022-08-20T02:00:55;20.80;84.30
67141;DHT22;54058;52.010;5.546;2022-08-20T02:03:22;20.80;84.10
67141;DHT22;54058;52.010;5.546;2022-08-20T02:05:48;20.80;84.10
67141;DHT22;54058;52.010;5.546;2022-08-20T02:08:14;20.90;84.00
67141;DHT22;54058;52.010;5.546;2022-08-20T02:10:40;20.90;84.00
67141;DHT22;54058;52.010;5.546;2022-08-20T02:13:05;20.90;83.90
67141;DHT22;54058;52.010;5.546;2022-08-20T02:15:35;20.90;84.00
67141;DHT22;54058;52.010;5.546;2022-08-20T02:18:06;20.80;84.20
67141;DHT22;54058;52.010;5.546;2022-08-20T02:20:32;20.80;84.30
67141;DHT22;54058;52.010;5.546;2022-08-20T02:22:59;20.80;84.30
67141;DHT22;54058;52.010;5.546;2022-08-20T02:25:28;20.90;84.40
67141;DHT22;54058;52.010;5.546;2022-08-20T02:27:56;20.80;84.50
67141;DHT22;54058;52.010;5.546;2022-08-20T02:30:44;20.70;84.60
67141;DHT22;54058;52.010;5.546;2022-08-20T02:33:13;20.80;84.90
67141;DHT22;54058;52.010;5.546;2022-08-20T02:35:41;20.80;85.40
67141;DHT22;54058;52.010;5.546;2022-08-20T02:38:08;20.80;84.80
67141;DHT22;54058;52.010;5.546;2022-08-20T02:40:34;20.70;84.80
67141;DHT22;54058;52.010;5.546;2022-08-20T02:43:01;20.80;84.70
67141;DHT22;54058;52.010;5.546;2022-08-20T02:45:28;20.80;84.70
67141;DHT22;54058;52.010;5.546;2022-08-20T02:47:54;20.80;84.60
67141;DHT22;54058;52.010;5.546;2022-08-20T02:50:23;20.70;84.50
67141;DHT22;54058;52.010;5.546;2022-08-20T02:52:49;20.70;84.50
67141;DHT22;54058;52.010;5.546;2022-08-20T02:55:14;20.70;84.50
67141;DHT22;54058;52.010;5.546;2022-08-20T02:57:41;20.60;85.20
67141;DHT22;54058;52.010;5.546;2022-08-20T03:00:13;20.60;84.80
67141;DHT22;54058;52.010;5.546;2022-08-20T03:02:40;20.60;85.10
67141;DHT22;54058;52.010;5.546;2022-08-20T03:05:06;20.50;85.40
67141;DHT22;54058;52.010;5.546;2022-08-20T03:07:43;20.50;85.30
67141;DHT22;54058;52.010;5.546;2022-08-20T03:10:10;20.50;85.90
67141;DHT22;54058;52.010;5.546;2022-08-20T03:12:36;20.50;86.00
67141;DHT22;54058;52.010;5.546;2022-08-20T03:15:04;20.50;85.70
67141;DHT22;54058;52.010;5.546;2022-08-20T03:17:29;20.50;85.80
67141;DHT22;54058;52.010;5.546;2022-08-20T03:19:55;20.50;85.70
67141;DHT22;54058;52.010;5.546;2022-08-20T03:22:21;20.50;85.60
67141;DHT22;54058;52.010;5.546;2022-08-20T03:24:46;20.50;85.50
67141;DHT22;54058;52.010;5.546;2022-08-20T03:27:12;20.50;85.50
67141;DHT22;54058;52.010;5.546;2022-08-20T03:29:38;20.60;85.60
67141;DHT22;54058;52.010;5.546;2022-08-20T03:32:03;20.50;85.70
67141;DHT22;54058;52.010;5.546;2022-08-20T03:34:29;20.40;85.80
67141;DHT22;54058;52.010;5.546;2022-08-20T03:36:55;20.40;86.10
67141;DHT22;54058;52.010;5.546;2022-08-20T03:39:20;20.30;86.20
67141;DHT22;54058;52.010;5.546;2022-08-20T03:41:46;20.30;86.10
67141;DHT22;54058;52.010;5.546;2022-08-20T03:44:12;20.30;86.10
67141;DHT22;54058;52.010;5.546;2022-08-20T03:46:37;20.20;86.10
67141;DHT22;54058;52.010;5.546;2022-08-20T03:49:04;20.20;85.90
67141;DHT22;54058;52.010;5.546;2022-08-20T03:51:31;20.20;86.20
67141;DHT22;54058;52.010;5.546;2022-08-20T03:53:56;20.00;86.20
67141;DHT22;54058;52.010;5.546;2022-08-20T03:56:22;20.00;86.70
67141;DHT22;54058;52.010;5.546;2022-08-20T03:58:48;20.00;86.10
67141;DHT22;54058;52.010;5.546;2022-08-20T04:01:13;20.00;85.90
67141;DHT22;54058;52.010;5.546;2022-08-20T04:03:39;20.10;85.70
67141;DHT22;54058;52.010;5.546;2022-08-20T04:06:05;20.10;85.60
67141;DHT22;54058;52.010;5.546;2022-08-20T04:08:31;20.10;85.60
67141;DHT22;54058;52.010;5.546;2022-08-20T04:10:58;20.10;85.40
67141;DHT22;54058;52.010;5.546;2022-08-20T04:13:25;20.20;85.30
67141;DHT22;54058;52.010;5.546;2022-08-20T04:15:51;20.20;85.10
67141;DHT22;54058;52.010;5.546;2022-08-20T04:18:21;20.30;85.10
67141;DHT22;54058;52.010;5.546;2022-08-20T04:20:49;20.30;85.10
67141;DHT22;54058;52.010;5.546;2022-08-20T04:23:15;20.30;85.00
67141;DHT22;54058;52.010;5.546;2022-08-20T04:25:42;20.30;86.20
67141;DHT22;54058;52.010;5.546;2022-08-20T04:28:11;20.30;84.70
67141;DHT22;54058;52.010;5.546;2022-08-20T04:30:38;20.30;85.50
67141;DHT22;54058;52.010;5.546;2022-08-20T04:33:03;20.30;84.60
67141;DHT22;54058;52.010;5.546;2022-08-20T04:35:29;20.30;84.70
67141;DHT22;54058;52.010;5.546;2022-08-20T04:38:04;20.20;84.80
67141;DHT22;54058;52.010;5.546;2022-08-20T04:40:31;20.20;85.00
67141;DHT22;54058;52.010;5.546;2022-08-20T04:43:16;20.20;85.20
67141;DHT22;54058;52.010;5.546;2022-08-20T04:45:42;20.10;85.20
67141;DHT22;54058;52.010;5.546;2022-08-20T04:48:08;20.00;85.30
67141;DHT22;54058;52.010;5.546;2022-08-20T04:50:36;20.00;85.20
67141;DHT22;54058;52.010;5.546;2022-08-20T04:53:04;19.90;85.10
67141;DHT22;54058;52.010;5.546;2022-08-20T04:55:30;20.00;85.10
67141;DHT22;54058;52.010;5.546;2022-08-20T04:58:02;19.90;84.90
67141;DHT22;54058;52.010;5.546;2022-08-20T05:00:28;19.90;84.90
67141;DHT22;54058;52.010;5.546;2022-08-20T05:02:56;19.90;84.90
67141;DHT22;54058;52.010;5.546;2022-08-20T05:05:21;19.90;84.90
67141;DHT22;54058;52.010;5.546;2022-08-20T05:07:47;19.90;84.90
67141;DHT22;54058;52.010;5.546;2022-08-20T05:10:15;19.90;84.70
67141;DHT22;54058;52.010;5.546;2022-08-20T05:12:41;19.90;84.60
67141;DHT22;54058;52.010;5.546;2022-08-20T05:15:09;20.00;84.50
67141;DHT22;54058;52.010;5.546;2022-08-20T05:17:41;19.90;84.30
67141;DHT22;54058;52.010;5.546;2022-08-20T05:20:11;19.90;84.20
67141;DHT22;54058;52.010;5.546;2022-08-20T05:22:37;19.90;84.20
67141;DHT22;54058;52.010;5.546;2022-08-20T05:25:03;19.90;84.20
67141;DHT22;54058;52.010;5.546;2022-08-20T05:27:30;19.80;84.30
67141;DHT22;54058;52.010;5.546;2022-08-20T05:30:00;19.70;84.50
67141;DHT22;54058;52.010;5.546;2022-08-20T05:32:27;19.70;84.70
67141;DHT22;54058;52.010;5.546;2022-08-20T05:34:52;19.70;84.70
67141;DHT22;54058;52.010;5.546;2022-08-20T05:37:19;19.70;84.70
67141;DHT22;54058;52.010;5.546;2022-08-20T05:39:44;19.70;84.90
67141;DHT22;54058;52.010;5.546;2022-08-20T05:42:10;19.60;85.00
67141;DHT22;54058;52.010;5.546;2022-08-20T05:44:37;19.70;85.60
67141;DHT22;54058;52.010;5.546;2022-08-20T05:47:03;19.60;85.10
67141;DHT22;54058;52.010;5.546;2022-08-20T05:49:30;19.60;85.20
67141;DHT22;54058;52.010;5.546;2022-08-20T05:51:56;19.60;85.30
67141;DHT22;54058;52.010;5.546;2022-08-20T05:54:22;19.60;85.50
67141;DHT22;54058;52.010;5.546;2022-08-20T05:56:48;19.60;85.50
67141;DHT22;54058;52.010;5.546;2022-08-20T05:59:15;19.70;85.60
67141;DHT22;54058;52.010;5.546;2022-08-20T06:01:41;19.70;85.40
67141;DHT22;54058;52.010;5.546;2022-08-20T06:04:07;19.70;85.30
67141;DHT22;54058;52.010;5.546;2022-08-20T06:07:03;19.70;85.30
67141;DHT22;54058;52.010;5.546;2022-08-20T06:09:30;19.70;85.20
67141;DHT22;54058;52.010;5.546;2022-08-20T06:11:56;19.80;85.30
67141;DHT22;54058;52.010;5.546;2022-08-20T06:14:23;19.90;85.10
67141;DHT22;54058;52.010;5.546;2022-08-20T06:16:50;19.90;84.90
67141;DHT22;54058;52.010;5.546;2022-08-20T06:19:16;19.90;84.70
67141;DHT22;54058;52.010;5.546;2022-08-20T06:21:41;20.00;84.50
67141;DHT22;54058;52.010;5.546;2022-08-20T06:24:07;19.90;84.20
67141;DHT22;54058;52.010;5.546;2022-08-20T06:26:33;19.90;84.20
67141;DHT22;54058;52.010;5.546;2022-08-20T06:29:04;19.90;84.40
67141;DHT22;54058;52.010;5.546;2022-08-20T06:31:30;20.00;84.30
67141;DHT22;54058;52.010;5.546;2022-08-20T06:33:56;20.10;84.30
67141;DHT22;54058;52.010;5.546;2022-08-20T06:36:21;20.20;84.90
67141;DHT22;54058;52.010;5.546;2022-08-20T06:38:47;20.80;84.40
67141;DHT22;54058;52.010;5.546;2022-08-20T06:41:13;21.20;83.80
67141;DHT22;54058;52.010;5.546;2022-08-20T06:43:38;21.30;83.60
67141;DHT22;54058;52.010;5.546;2022-08-20T06:46:04;21.30;84.20
67141;DHT22;54058;52.010;5.546;2022-08-20T06:48:31;21.30;84.00
67141;DHT22;54058;52.010;5.546;2022-08-20T06:50:56;21.50;83.20
67141;DHT22;54058;52.010;5.546;2022-08-20T06:53:22;21.80;84.30
67141;DHT22;54058;52.010;5.546;2022-08-20T06:55:52;21.80;84.40
67141;DHT22;54058;52.010;5.546;2022-08-20T06:58:18;21.80;83.90
67141;DHT22;54058;52.010;5.546;2022-08-20T07:00:45;22.10;83.80
67141;DHT22;54058;52.010;5.546;2022-08-20T07:03:12;22.30;83.30
67141;DHT22;54058;52.010;5.546;2022-08-20T07:05:40;22.50;83.00
67141;DHT22;54058;52.010;5.546;2022-08-20T07:08:14;22.50;82.70
67141;DHT22;54058;52.010;5.546;2022-08-20T07:10:42;22.40;82.60
67141;DHT22;54058;52.010;5.546;2022-08-20T07:13:12;22.30;83.30
67141;DHT22;54058;52.010;5.546;2022-08-20T07:15:39;22.30;83.20
67141;DHT22;54058;52.010;5.546;2022-08-20T07:18:05;22.70;84.00
67141;DHT22;54058;52.010;5.546;2022-08-20T07:20:33;22.80;83.70
67141;DHT22;54058;52.010;5.546;2022-08-20T07:22:59;22.60;83.70
67141;DHT22;54058;52.010;5.546;2022-08-20T07:25:26;22.60;83.50
67141;DHT22;54058;52.010;5.546;2022-08-20T07:27:52;22.70;83.30
67141;DHT22;54058;52.010;5.546;2022-08-20T07:30:21;22.70;83.20
67141;DHT22;54058;52.010;5.546;2022-08-20T07:33:06;22.50;82.70
67141;DHT22;54058;52.010;5.546;2022-08-20T07:35:32;22.10;82.80
67141;DHT22;54058;52.010;5.546;2022-08-20T07:37:57;22.00;83.40
67141;DHT22;54058;52.010;5.546;2022-08-20T07:40:28;22.00;83.50
67141;DHT22;54058;52.010;5.546;2022-08-20T07:42:55;22.00;82.90
67141;DHT22;54058;52.010;5.546;2022-08-20T07:45:23;22.00;83.00
67141;DHT22;54058;52.010;5.546;2022-08-20T07:47:49;22.00;82.90
67141;DHT22;54058;52.010;5.546;2022-08-20T07:50:20;22.10;82.70
67141;DHT22;54058;52.010;5.546;2022-08-20T07:52:46;22.20;81.50
67141;DHT22;54058;52.010;5.546;2022-08-20T07:55:14;22.10;81.40
67141;DHT22;54058;52.010;5.546;2022-08-20T07:57:41;22.10;81.40
67141;DHT22;54058;52.010;5.546;2022-08-20T08:00:09;22.00;81.60
67141;DHT22;54058;52.010;5.546;2022-08-20T08:02:36;22.10;81.90
67141;DHT22;54058;52.010;5.546;2022-08-20T08:05:03;22.30;81.90
67141;DHT22;54058;52.010;5.546;2022-08-20T08:07:30;22.70;81.30
67141;DHT22;54058;52.010;5.546;2022-08-20T08:09:56;22.80;80.80
67141;DHT22;54058;52.010;5.546;2022-08-20T08:12:23;22.90;80.10
67141;DHT22;54058;52.010;5.546;2022-08-20T08:14:50;22.90;79.30
67141;DHT22;54058;52.010;5.546;2022-08-20T08:17:17;22.60;79.10
67141;DHT22;54058;52.010;5.546;2022-08-20T08:19:46;22.40;79.60
67141;DHT22;54058;52.010;5.546;2022-08-20T08:22:14;22.50;79.80
67141;DHT22;54058;52.010;5.546;2022-08-20T08:24:42;22.50;79.40
67141;DHT22;54058;52.010;5.546;2022-08-20T08:27:09;22.50;79.70
67141;DHT22;54058;52.010;5.546;2022-08-20T08:29:36;22.60;79.80
67141;DHT22;54058;52.010;5.546;2022-08-20T08:32:05;22.80;79.30
67141;DHT22;54058;52.010;5.546;2022-08-20T08:34:33;22.90;78.60
67141;DHT22;54058;52.010;5.546;2022-08-20T08:36:59;23.10;78.10
67141;DHT22;54058;52.010;5.546;2022-08-20T08:39:27;23.30;78.30
67141;DHT22;54058;52.010;5.546;2022-08-20T08:41:53;23.50;77.80
67141;DHT22;54058;52.010;5.546;2022-08-20T08:44:27;23.40;77.30
67141;DHT22;54058;52.010;5.546;2022-08-20T08:47:07;23.40;76.20
67141;DHT22;54058;52.010;5.546;2022-08-20T08:49:38;23.40;74.80
67141;DHT22;54058;52.010;5.546;2022-08-20T08:52:10;23.50;77.40
67141;DHT22;54058;52.010;5.546;2022-08-20T08:54:41;23.70;76.80
67141;DHT22;54058;52.010;5.546;2022-08-20T08:57:09;23.80;75.20
67141;DHT22;54058;52.010;5.546;2022-08-20T08:59:34;23.70;75.70
67141;DHT22;54058;52.010;5.546;2022-08-20T09:02:01;23.70;75.90
67141;DHT22;54058;52.010;5.546;2022-08-20T09:04:36;23.90;75.50
67141;DHT22;54058;52.010;5.546;2022-08-20T09:07:04;24.20;74.60
67141;DHT22;54058;52.010;5.546;2022-08-20T09:09:35;24.40;74.40
67141;DHT22;54058;52.010;5.546;2022-08-20T09:12:07;24.70;74.20
67141;DHT22;54058;52.010;5.546;2022-08-20T09:14:34;24.90;72.60
67141;DHT22;54058;52.010;5.546;2022-08-20T09:17:00;25.10;73.30
67141;DHT22;54058;52.010;5.546;2022-08-20T09:19:26;25.20;72.30
67141;DHT22;54058;52.010;5.546;2022-08-20T09:21:52;25.40;72.30
67141;DHT22;54058;52.010;5.546;2022-08-20T09:24:18;25.60;72.20
67141;DHT22;54058;52.010;5.546;2022-08-20T09:26:43;25.70;72.30
67141;DHT22;54058;52.010;5.546;2022-08-20T09:29:09;25.80;71.40
67141;DHT22;54058;52.010;5.546;2022-08-20T09:31:35;25.70;71.30
67141;DHT22;54058;52.010;5.546;2022-08-20T09:34:01;25.80;71.40
67141;DHT22;54058;52.010;5.546;2022-08-20T09:36:26;25.50;62.30
67141;DHT22;54058;52.010;5.546;2022-08-20T09:38:52;25.30;62.80
67141;DHT22;54058;52.010;5.546;2022-08-20T09:41:18;25.10;72.60
67141;DHT22;54058;52.010;5.546;2022-08-20T09:43:44;25.20;72.50
67141;DHT22;54058;52.010;5.546;2022-08-20T09:46:10;25.20;72.10
67141;DHT22;54058;52.010;5.546;2022-08-20T09:48:35;25.10;70.40
67141;DHT22;54058;52.010;5.546;2022-08-20T09:51:01;25.00;70.30
67141;DHT22;54058;52.010;5.546;2022-08-20T09:53:27;25.30;70.70
67141;DHT22;54058;52.010;5.546;2022-08-20T09:55:54;25.50;70.00
67141;DHT22;54058;52.010;5.546;2022-08-20T09:58:24;25.70;68.70
67141;DHT22;54058;52.010;5.546;2022-08-20T10:00:51;25.80;59.80
67141;DHT22;54058;52.010;5.546;2022-08-20T10:03:18;25.80;68.20
67141;DHT22;54058;52.010;5.546;2022-08-20T10:05:44;25.80;67.90
67141;DHT22;54058;52.010;5.546;2022-08-20T10:08:10;25.70;67.10
67141;DHT22;54058;52.010;5.546;2022-08-20T10:10:36;25.70;66.80
67141;DHT22;54058;52.010;5.546;2022-08-20T10:13:02;25.60;66.00
67141;DHT22;54058;52.010;5.546;2022-08-20T10:15:29;25.60;66.80
67141;DHT22;54058;52.010;5.546;2022-08-20T10:17:55;25.70;66.50
67141;DHT22;54058;52.010;5.546;2022-08-20T10:20:21;25.60;66.00
67141;DHT22;54058;52.010;5.546;2022-08-20T10:22:47;25.20;58.00
67141;DHT22;54058;52.010;5.546;2022-08-20T10:25:13;24.80;56.60
67141;DHT22;54058;52.010;5.546;2022-08-20T10:27:38;24.90;54.40
67141;DHT22;54058;52.010;5.546;2022-08-20T10:30:06;25.00;66.90
67141;DHT22;54058;52.010;5.546;2022-08-20T10:32:32;25.40;65.30
67141;DHT22;54058;52.010;5.546;2022-08-20T10:34:57;25.70;64.90
67141;DHT22;54058;52.010;5.546;2022-08-20T10:37:24;26.10;64.30
67141;DHT22;54058;52.010;5.546;2022-08-20T10:39:50;26.40;63.50
67141;DHT22;54058;52.010;5.546;2022-08-20T10:42:16;26.50;63.20
67141;DHT22;54058;52.010;5.546;2022-08-20T10:44:42;26.70;62.50
67141;DHT22;54058;52.010;5.546;2022-08-20T10:47:27;26.70;61.50
67141;DHT22;54058;52.010;5.546;2022-08-20T10:49:55;26.80;59.50
67141;DHT22;54058;52.010;5.546;2022-08-20T10:52:22;27.00;61.00
67141;DHT22;54058;52.010;5.546;2022-08-20T10:54:48;27.10;60.00
67141;DHT22;54058;52.010;5.546;2022-08-20T10:57:23;27.20;59.90
67141;DHT22;54058;52.010;5.546;2022-08-20T10:59:51;27.20;59.20
67141;DHT22;54058;52.010;5.546;2022-08-20T11:02:17;27.20;58.90
67141;DHT22;54058;52.010;5.546;2022-08-20T11:04:43;27.20;58.70
67141;DHT22;54058;52.010;5.546;2022-08-20T11:09:39;26.80;57.40
67141;DHT22;54058;52.010;5.546;2022-08-20T11:12:05;26.70;57.20
67141;DHT22;54058;52.010;5.546;2022-08-20T11:14:30;26.90;58.00
67141;DHT22;54058;52.010;5.546;2022-08-20T11:16:56;27.10;57.10
67141;DHT22;54058;52.010;5.546;2022-08-20T11:19:22;27.20;57.00
67141;DHT22;54058;52.010;5.546;2022-08-20T11:21:47;27.10;56.40
67141;DHT22;54058;52.010;5.546;2022-08-20T11:24:13;26.80;56.10
67141;DHT22;54058;52.010;5.546;2022-08-20T11:26:39;26.80;57.10
67141;DHT22;54058;52.010;5.546;2022-08-20T11:29:05;26.90;57.10
67141;DHT22;54058;52.010;5.546;2022-08-20T11:31:30;27.00;56.40
67141;DHT22;54058;52.010;5.546;2022-08-20T11:33:56;27.00;56.90
67141;DHT22;54058;52.010;5.546;2022-08-20T11:36:21;26.90;56.70
67141;DHT22;54058;52.010;5.546;2022-08-20T11:38:51;26.90;56.50
67141;DHT22;54058;52.010;5.546;2022-08-20T11:41:16;26.80;56.70
67141;DHT22;54058;52.010;5.546;2022-08-20T11:43:42;26.60;57.40
67141;DHT22;54058;52.010;5.546;2022-08-20T11:46:07;26.60;57.30
67141;DHT22;54058;52.010;5.546;2022-08-20T11:48:33;26.70;56.90
67141;DHT22;54058;52.010;5.546;2022-08-20T11:50:59;26.60;56.60
67141;DHT22;54058;52.010;5.546;2022-08-20T11:53:24;26.70;56.50
67141;DHT22;54058;52.010;5.546;2022-08-20T11:55:50;26.80;56.40
67141;DHT22;54058;52.010;5.546;2022-08-20T11:58:16;26.60;56.30
67141;DHT22;54058;52.010;5.546;2022-08-20T12:00:41;26.50;56.50
67141;DHT22;54058;52.010;5.546;2022-08-20T12:03:08;26.40;56.60
67141;DHT22;54058;52.010;5.546;2022-08-20T12:05:33;26.50;56.30
67141;DHT22;54058;52.010;5.546;2022-08-20T12:08:00;26.50;56.00
67141;DHT22;54058;52.010;5.546;2022-08-20T12:10:26;26.30;55.80
67141;DHT22;54058;52.010;5.546;2022-08-20T12:12:53;26.10;56.00
67141;DHT22;54058;52.010;5.546;2022-08-20T12:15:19;26.00;55.70
67141;DHT22;54058;52.010;5.546;2022-08-20T12:17:45;25.90;55.30
67141;DHT22;54058;52.010;5.546;2022-08-20T12:20:12;26.00;55.70
67141;DHT22;54058;52.010;5.546;2022-08-20T12:22:39;26.00;54.90
67141;DHT22;54058;52.010;5.546;2022-08-20T12:25:05;26.10;55.20
67141;DHT22;54058;52.010;5.546;2022-08-20T12:27:33;26.20;54.90
67141;DHT22;54058;52.010;5.546;2022-08-20T12:30:04;26.20;54.40
67141;DHT22;54058;52.010;5.546;2022-08-20T12:32:31;26.20;54.40
67141;DHT22;54058;52.010;5.546;2022-08-20T12:34:57;26.20;54.30
67141;DHT22;54058;52.010;5.546;2022-08-20T12:37:23;26.30;49.80
67141;DHT22;54058;52.010;5.546;2022-08-20T12:39:52;26.30;49.80
67141;DHT22;54058;52.010;5.546;2022-08-20T12:42:19;26.50;55.30
67141;DHT22;54058;52.010;5.546;2022-08-20T12:44:45;26.50;54.60
67141;DHT22;54058;52.010;5.546;2022-08-20T12:49:41;26.40;53.70
67141;DHT22;54058;52.010;5.546;2022-08-20T12:52:07;26.30;53.10
67141;DHT22;54058;52.010;5.546;2022-08-20T12:54:34;26.30;53.70
67141;DHT22;54058;52.010;5.546;2022-08-20T12:57:00;26.10;53.40
67141;DHT22;54058;52.010;5.546;2022-08-20T12:59:25;26.00;48.80
67141;DHT22;54058;52.010;5.546;2022-08-20T13:01:52;26.00;50.30
67141;DHT22;54058;52.010;5.546;2022-08-20T13:04:18;26.30;55.20
67141;DHT22;54058;52.010;5.546;2022-08-20T13:06:44;26.30;51.20
67141;DHT22;54058;52.010;5.546;2022-08-20T13:09:10;26.20;55.00
67141;DHT22;54058;52.010;5.546;2022-08-20T13:11:36;26.30;55.30
67141;DHT22;54058;52.010;5.546;2022-08-20T13:14:01;26.30;54.50
67141;DHT22;54058;52.010;5.546;2022-08-20T13:16:27;26.00;53.20
67141;DHT22;54058;52.010;5.546;2022-08-20T13:18:53;26.00;53.80
67141;DHT22;54058;52.010;5.546;2022-08-20T13:21:18;26.00;54.80
67141;DHT22;54058;52.010;5.546;2022-08-20T13:23:44;26.10;54.20
67141;DHT22;54058;52.010;5.546;2022-08-20T13:26:09;26.20;54.50
67141;DHT22;54058;52.010;5.546;2022-08-20T13:28:35;26.40;54.30
67141;DHT22;54058;52.010;5.546;2022-08-20T13:31:01;26.40;53.90
67141;DHT22;54058;52.010;5.546;2022-08-20T13:33:27;26.30;53.50
67141;DHT22;54058;52.010;5.546;2022-08-20T13:35:53;26.40;53.30
67141;DHT22;54058;52.010;5.546;2022-08-20T13:38:19;26.30;53.50
67141;DHT22;54058;52.010;5.546;2022-08-20T13:40:45;26.30;53.40
67141;DHT22;54058;52.010;5.546;2022-08-20T13:43:10;26.30;53.40
67141;DHT22;54058;52.010;5.546;2022-08-20T13:45:36;26.30;52.90
67141;DHT22;54058;52.010;5.546;2022-08-20T13:48:03;26.20;53.10
67141;DHT22;54058;52.010;5.546;2022-08-20T13:50:29;26.00;53.00
67141;DHT22;54058;52.010;5.546;2022-08-20T13:52:54;25.90;53.40
67141;DHT22;54058;52.010;5.546;2022-08-20T13:55:22;25.80;54.00
67141;DHT22;54058;52.010;5.546;2022-08-20T13:57:48;25.80;53.50
67141;DHT22;54058;52.010;5.546;2022-08-20T14:00:18;25.80;54.20
67141;DHT22;54058;52.010;5.546;2022-08-20T14:02:44;25.80;53.30
67141;DHT22;54058;52.010;5.546;2022-08-20T14:05:10;25.70;54.10
67141;DHT22;54058;52.010;5.546;2022-08-20T14:07:36;25.90;54.00
67141;DHT22;54058;52.010;5.546;2022-08-20T14:10:08;26.10;54.10
67141;DHT22;54058;52.010;5.546;2022-08-20T14:12:35;26.20;53.50
67141;DHT22;54058;52.010;5.546;2022-08-20T14:15:01;26.20;53.40
67141;DHT22;54058;52.010;5.546;2022-08-20T14:17:35;26.10;53.20
67141;DHT22;54058;52.010;5.546;2022-08-20T14:20:13;25.90;52.20
67141;DHT22;54058;52.010;5.546;2022-08-20T14:22:39;26.00;52.60
67141;DHT22;54058;52.010;5.546;2022-08-20T14:25:07;26.00;53.90
67141;DHT22;54058;52.010;5.546;2022-08-20T14:27:33;26.20;53.10
67141;DHT22;54058;52.010;5.546;2022-08-20T14:30:00;26.20;53.20
67141;DHT22;54058;52.010;5.546;2022-08-20T14:32:26;26.10;53.10
67141;DHT22;54058;52.010;5.546;2022-08-20T14:34:53;26.20;53.30
67141;DHT22;54058;52.010;5.546;2022-08-20T14:37:33;26.10;53.20
67141;DHT22;54058;52.010;5.546;2022-08-20T14:40:00;26.10;51.70
67141;DHT22;54058;52.010;5.546;2022-08-20T14:42:28;26.20;53.10
67141;DHT22;54058;52.010;5.546;2022-08-20T14:44:55;26.10;53.00
67141;DHT22;54058;52.010;5.546;2022-08-20T14:47:23;26.10;52.90
67141;DHT22;54058;52.010;5.546;2022-08-20T14:49:51;26.00;53.20
67141;DHT22;54058;52.010;5.546;2022-08-20T14:52:21;26.10;53.70
67141;DHT22;54058;52.010;5.546;2022-08-20T14:54:47;26.10;53.50
67141;DHT22;54058;52.010;5.546;2022-08-20T14:57:13;26.10;53.00
67141;DHT22;54058;52.010;5.546;2022-08-20T14:59:39;25.90;51.00
67141;DHT22;54058;52.010;5.546;2022-08-20T15:02:07;25.70;53.70
67141;DHT22;54058;52.010;5.546;2022-08-20T15:04:34;25.70;53.90
67141;DHT22;54058;52.010;5.546;2022-08-20T15:07:01;25.70;54.00
67141;DHT22;54058;52.010;5.546;2022-08-20T15:09:31;25.70;54.10
67141;DHT22;54058;52.010;5.546;2022-08-20T15:11:57;25.70;54.10
67141;DHT22;54058;52.010;5.546;2022-08-20T15:14:23;25.70;54.40
67141;DHT22;54058;52.010;5.546;2022-08-20T15:16:49;25.80;54.90
67141;DHT22;54058;52.010;5.546;2022-08-20T15:19:15;26.00;54.80
67141;DHT22;54058;52.010;5.546;2022-08-20T15:21:41;26.00;55.10
67141;DHT22;54058;52.010;5.546;2022-08-20T15:24:06;26.00;54.40
67141;DHT22;54058;52.010;5.546;2022-08-20T15:26:32;25.90;54.30
67141;DHT22;54058;52.010;5.546;2022-08-20T15:28:58;25.70;54.20
67141;DHT22;54058;52.010;5.546;2022-08-20T15:31:23;25.60;54.50
67141;DHT22;54058;52.010;5.546;2022-08-20T15:33:49;25.40;54.60
67141;DHT22;54058;52.010;5.546;2022-08-20T15:36:15;25.30;54.90
67141;DHT22;54058;52.010;5.546;2022-08-20T15:38:40;25.20;55.10
67141;DHT22;54058;52.010;5.546;2022-08-20T15:41:06;25.20;55.30
67141;DHT22;54058;52.010;5.546;2022-08-20T15:43:32;25.00;55.20